Time;durP1;ratioP1;P1;durP2;ratioP2;P2;SDS_P1;SDS_P2;PMS_P1;PMS_P2;Temp;Humidity;BMP_temperature;BMP_pressure;BME280_temperature;BME280_humidity;BME280_pressure;Samples;Min_cycle;Max_cycle;Signal;HPM_P1;HPM_P2
2021/06/15 00:01:00;;;;;;;13.13;9.50;;;17.60;99.90;;;;;;5135552;27;20719;-88
2021/06/15 00:03:25;;;;;;;13.70;10.47;;;17.50;99.90;;;;;;5135621;27;20569;-87
2021/06/15 00:05:52;;;;;;;13.53;10.77;;;17.60;99.90;;;;;;5134272;27;20509;-85
2021/06/15 00:08:17;;;;;;;16.50;10.63;;;17.50;99.90;;;;;;5135496;27;20570;-85
2021/06/15 00:10:44;;;;;;;11.00;8.90;;;17.50;99.90;;;;;;5134108;27;20525;-86
2021/06/15 00:13:10;;;;;;;8.73;7.83;;;17.50;99.90;;;;;;5133665;27;20243;-87
2021/06/15 00:15:36;;;;;;;14.13;8.70;;;17.40;99.90;;;;;;5133363;27;20521;-86
2021/06/15 00:18:03;;;;;;;11.50;8.20;;;17.40;99.90;;;;;;5134063;27;20171;-86
2021/06/15 00:20:29;;;;;;;11.07;7.40;;;17.40;99.90;;;;;;5135255;27;20473;-86
2021/06/15 00:22:55;;;;;;;13.90;8.13;;;17.40;99.90;;;;;;5134160;27;20517;-86
2021/06/15 00:25:22;;;;;;;13.27;7.47;;;17.40;99.90;;;;;;5135104;27;20497;-86
2021/06/15 00:27:48;;;;;;;10.53;7.67;;;17.30;99.90;;;;;;5134809;27;20161;-86
2021/06/15 00:30:16;;;;;;;12.43;7.50;;;17.20;99.90;;;;;;5133808;27;20414;-86
2021/06/15 00:32:43;;;;;;;12.13;6.90;;;17.20;99.90;;;;;;5135129;27;20402;-86
2021/06/15 00:35:09;;;;;;;14.20;7.73;;;17.20;99.90;;;;;;5133542;27;20497;-86
2021/06/15 00:37:35;;;;;;;10.33;6.97;;;17.10;99.90;;;;;;5134953;27;20410;-86
2021/06/15 00:40:00;;;;;;;10.73;7.23;;;17.10;99.90;;;;;;5134919;27;20473;-86
2021/06/15 00:42:26;;;;;;;14.40;8.77;;;17.10;99.90;;;;;;5133144;27;20911;-86
2021/06/15 00:44:51;;;;;;;12.67;8.43;;;17.00;99.90;;;;;;5134632;27;20208;-86
2021/06/15 00:47:18;;;;;;;14.23;8.80;;;17.00;99.90;;;;;;5133467;27;20168;-85
2021/06/15 00:49:43;;;;;;;11.60;8.13;;;16.90;99.90;;;;;;5134619;27;20526;-85
2021/06/15 00:52:10;;;;;;;11.10;9.33;;;16.90;99.90;;;;;;5133313;27;20410;-85
2021/06/15 00:54:36;;;;;;;12.53;8.07;;;16.90;99.90;;;;;;5133238;27;20636;-86
2021/06/15 00:57:03;;;;;;;9.17;7.97;;;17.00;99.90;;;;;;5133297;27;20417;-85
2021/06/15 00:59:28;;;;;;;10.00;7.37;;;16.90;99.90;;;;;;5134166;27;20440;-87
2021/06/15 01:01:54;;;;;;;13.27;8.70;;;16.90;99.90;;;;;;5133128;27;20448;-85
2021/06/15 01:04:20;;;;;;;14.10;8.17;;;16.80;99.90;;;;;;5133004;27;20215;-85
2021/06/15 01:06:55;;;;;;;16.30;8.27;;;16.80;99.90;;;;;;5134406;27;20164;-85
2021/06/15 01:09:35;;;;;;;13.30;8.20;;;16.80;99.90;;;;;;5134358;27;20413;-85
2021/06/15 01:12:28;;;;;;;9.40;7.80;;;16.70;99.90;;;;;;5132751;27;20465;-87
2021/06/15 01:15:06;;;;;;;10.07;7.13;;;16.70;99.90;;;;;;5133076;27;20512;-84
2021/06/15 01:17:40;;;;;;;16.97;8.37;;;16.70;99.90;;;;;;5133315;27;20805;-88
2021/06/15 01:20:20;;;;;;;12.77;7.80;;;16.60;99.90;;;;;;5133013;27;20417;-84
2021/06/15 01:23:16;;;;;;;12.50;7.83;;;16.60;99.90;;;;;;5134195;27;20519;-84
2021/06/15 01:26:16;;;;;;;9.30;6.50;;;16.60;99.90;;;;;;5134204;27;20444;-85
2021/06/15 01:29:08;;;;;;;10.13;7.30;;;16.50;99.90;;;;;;5132540;27;20424;-84
2021/06/15 01:31:41;;;;;;;9.73;7.80;;;16.60;99.90;;;;;;5132039;27;20444;-84
2021/06/15 01:34:13;;;;;;;12.77;7.50;;;16.60;99.90;;;;;;5131722;27;20489;-84
2021/06/15 01:36:46;;;;;;;12.40;7.47;;;16.60;99.90;;;;;;5133850;28;20760;-84
2021/06/15 01:39:21;;;;;;;13.17;7.70;;;16.40;99.90;;;;;;5133845;28;20414;-85
2021/06/15 01:41:57;;;;;;;9.10;7.40;;;16.50;99.90;;;;;;5133749;28;20417;-84
2021/06/15 01:44:24;;;;;;;8.70;6.70;;;16.50;99.90;;;;;;5133325;28;20562;-84
2021/06/15 01:47:11;;;;;;;8.60;6.30;;;16.50;99.90;;;;;;5133761;28;20404;-84
2021/06/15 01:49:50;;;;;;;15.63;7.40;;;16.50;99.90;;;;;;5133705;27;20424;-85
2021/06/15 01:52:17;;;;;;;11.40;7.73;;;16.50;99.90;;;;;;5133877;27;20434;-85
2021/06/15 01:54:44;;;;;;;11.67;6.00;;;16.50;99.90;;;;;;5132533;28;20420;-87
2021/06/15 01:57:12;;;;;;;10.47;7.40;;;16.60;99.90;;;;;;5132154;27;20417;-84
2021/06/15 01:59:40;;;;;;;10.17;6.40;;;16.60;99.90;;;;;;5137972;27;20446;-84
2021/06/15 02:02:07;;;;;;;8.80;6.43;;;16.50;99.90;;;;;;5138028;27;20407;-86
2021/06/15 02:04:35;;;;;;;11.37;5.93;;;16.50;99.90;;;;;;5137832;27;20988;-84
2021/06/15 02:07:04;;;;;;;11.07;6.70;;;16.50;99.90;;;;;;5137857;27;20491;-84
2021/06/15 02:09:34;;;;;;;10.57;5.70;;;16.40;99.90;;;;;;5137845;27;20469;-87
2021/06/15 02:12:00;;;;;;;10.70;6.53;;;16.30;99.90;;;;;;5137587;27;20796;-85
2021/06/15 02:14:27;;;;;;;12.17;6.83;;;16.30;99.90;;;;;;5137412;27;20578;-84
2021/06/15 02:16:56;;;;;;;16.20;6.90;;;16.30;99.90;;;;;;5137727;27;20174;-85
2021/06/15 02:19:24;;;;;;;8.40;5.90;;;16.30;99.90;;;;;;5136391;27;20964;-85
2021/06/15 02:22:05;;;;;;;9.10;6.27;;;16.40;99.90;;;;;;5137646;27;21058;-85
2021/06/15 02:24:38;;;;;;;9.87;7.57;;;16.40;99.90;;;;;;5137610;27;20461;-86
2021/06/15 02:27:07;;;;;;;10.83;6.47;;;16.40;99.90;;;;;;5135939;27;20417;-87
2021/06/15 02:29:33;;;;;;;13.57;7.20;;;16.40;99.90;;;;;;5137562;27;20463;-88
2021/06/15 02:32:03;;;;;;;10.60;6.20;;;16.40;99.90;;;;;;5137457;27;20910;-87
2021/06/15 02:34:29;;;;;;;13.30;6.37;;;16.40;99.90;;;;;;5137378;27;20211;-86
2021/06/15 02:36:56;;;;;;;12.07;6.30;;;16.50;99.90;;;;;;5136146;27;20421;-86
2021/06/15 02:39:26;;;;;;;13.10;6.47;;;16.50;99.90;;;;;;5137281;27;20419;-86
2021/06/15 02:41:55;;;;;;;12.13;6.40;;;16.40;99.90;;;;;;5135976;27;20439;-87
2021/06/15 02:44:24;;;;;;;9.50;5.90;;;16.50;99.90;;;;;;5136720;27;20468;-86
2021/06/15 02:46:54;;;;;;;9.57;6.47;;;16.50;99.90;;;;;;5137237;27;20503;-89
2021/06/15 02:49:24;;;;;;;7.00;5.23;;;16.50;99.90;;;;;;5135689;27;20423;-86
2021/06/15 02:52:02;;;;;;;11.23;5.07;;;16.50;99.90;;;;;;5137126;27;20926;-86
2021/06/15 02:54:35;;;;;;;10.60;5.93;;;16.50;99.90;;;;;;5137025;27;20421;-87
2021/06/15 02:57:03;;;;;;;12.73;6.87;;;16.50;99.90;;;;;;5136524;27;20405;-85
2021/06/15 02:59:29;;;;;;;10.83;5.90;;;16.50;99.90;;;;;;5136863;27;20445;-87
2021/06/15 03:01:55;;;;;;;11.47;5.80;;;16.50;99.90;;;;;;5136950;27;20521;-87
2021/06/15 03:04:21;;;;;;;14.87;6.20;;;16.50;99.90;;;;;;5136771;27;20306;-87
2021/06/15 03:06:47;;;;;;;9.10;5.77;;;16.50;99.90;;;;;;5136847;27;20405;-87
2021/06/15 03:09:14;;;;;;;10.87;6.17;;;16.50;99.90;;;;;;5135592;27;20912;-88
2021/06/15 03:11:49;;;;;;;8.63;5.07;;;16.50;99.90;;;;;;5136403;27;20449;-87
2021/06/15 03:14:20;;;;;;;9.13;4.40;;;16.50;99.90;;;;;;5136390;27;20479;-87
2021/06/15 03:16:47;;;;;;;11.00;3.33;;;16.40;99.90;;;;;;5136692;27;20413;-86
2021/06/15 03:19:34;;;;;;;15.20;4.60;;;16.50;99.90;;;;;;5136510;27;20560;-86
2021/06/15 03:22:22;;;;;;;11.30;4.70;;;16.50;99.90;;;;;;5135213;27;20405;-86
2021/06/15 03:24:55;;;;;;;12.20;5.43;;;16.50;99.90;;;;;;5136373;27;20468;-87
2021/06/15 03:28:01;;;;;;;7.27;4.20;;;16.40;99.90;;;;;;5136166;27;20405;-86
2021/06/15 03:30:28;;;;;;;12.13;4.17;;;16.30;99.90;;;;;;5121648;27;20424;-86
2021/06/15 03:32:59;;;;;;;9.63;4.33;;;16.40;99.90;;;;;;5136288;27;20405;-86
2021/06/15 03:35:27;;;;;;;9.60;4.50;;;16.40;99.90;;;;;;5134848;27;20455;-87
2021/06/15 03:38:02;;;;;;;12.40;4.23;;;16.40;99.90;;;;;;5136081;27;20414;-86
2021/06/15 03:40:32;;;;;;;8.77;4.10;;;16.40;99.90;;;;;;5136109;27;20447;-86
2021/06/15 03:42:59;;;;;;;11.50;4.27;;;16.50;99.90;;;;;;5135652;27;20401;-87
2021/06/15 03:45:28;;;;;;;5.97;3.47;;;16.40;99.90;;;;;;5134583;27;20568;-86
2021/06/15 03:47:55;;;;;;;6.43;3.77;;;16.30;99.90;;;;;;5135974;27;20513;-87
2021/06/15 03:50:22;;;;;;;11.07;4.47;;;16.30;99.90;;;;;;5134591;27;20442;-87
2021/06/15 03:52:52;;;;;;;11.00;4.10;;;16.30;99.90;;;;;;5135875;27;20405;-86
2021/06/15 03:55:20;;;;;;;12.00;3.63;;;16.40;99.90;;;;;;5134552;27;20415;-86
2021/06/15 03:57:47;;;;;;;10.07;3.07;;;16.30;99.90;;;;;;5134109;27;20844;-86
2021/06/15 04:00:17;;;;;;;8.97;3.97;;;16.30;99.90;;;;;;5134453;27;20412;-87
2021/06/15 04:02:46;;;;;;;10.40;3.70;;;16.30;99.90;;;;;;5135762;27;20902;-86
2021/06/15 04:05:13;;;;;;;9.80;5.17;;;16.30;99.90;;;;;;5135459;27;20497;-86
2021/06/15 04:07:42;;;;;;;11.23;4.37;;;16.30;99.90;;;;;;5135613;27;20765;-85
2021/06/15 04:10:10;;;;;;;8.40;3.53;;;16.30;99.90;;;;;;5134309;27;20412;-85
2021/06/15 04:12:36;;;;;;;4.27;2.80;;;16.30;99.90;;;;;;5133644;27;20487;-86
2021/06/15 04:15:04;;;;;;;7.43;3.30;;;16.30;99.90;;;;;;5135271;27;20407;-86
2021/06/15 04:17:35;;;;;;;6.30;1.27;;;16.20;99.90;;;;;;5134273;27;20492;-86
2021/06/15 04:20:01;;;;;;;7.70;2.63;;;16.20;99.90;;;;;;5135223;27;20412;-86
2021/06/15 04:22:31;;;;;;;6.37;2.10;;;16.20;99.90;;;;;;5134678;27;20397;-86
2021/06/15 04:24:58;;;;;;;5.43;2.10;;;16.10;99.90;;;;;;5133678;27;20815;-85
2021/06/15 04:27:25;;;;;;;11.13;3.27;;;16.20;99.90;;;;;;5134616;27;20435;-87
2021/06/15 04:29:55;;;;;;;11.80;2.80;;;16.10;99.90;;;;;;5133621;27;20475;-86
2021/06/15 04:32:23;;;;;;;9.30;3.47;;;16.10;99.90;;;;;;5134895;27;20409;-86
2021/06/15 04:34:59;;;;;;;8.77;2.90;;;16.10;99.90;;;;;;5134790;27;20417;-85
2021/06/15 04:37:28;;;;;;;6.43;2.27;;;16.10;99.90;;;;;;5133345;27;20419;-85
2021/06/15 04:39:58;;;;;;;6.67;2.50;;;16.00;99.90;;;;;;5134550;27;20916;-86
2021/06/15 04:42:36;;;;;;;9.03;2.37;;;16.00;99.90;;;;;;5134205;27;20443;-86
2021/06/15 04:45:02;;;;;;;3.73;1.90;;;16.00;99.90;;;;;;5134581;27;20463;-85
2021/06/15 04:47:32;;;;;;;9.00;1.57;;;16.00;99.90;;;;;;5134614;27;20488;-86
2021/06/15 04:50:13;;;;;;;7.13;3.30;;;16.10;99.90;;;;;;5134627;27;20409;-86
2021/06/15 04:52:40;;;;;;;6.37;1.80;;;16.00;99.90;;;;;;5135812;27;20717;-85
2021/06/15 04:55:07;;;;;;;7.47;1.47;;;16.00;99.90;;;;;;5134541;27;20429;-87
2021/06/15 04:57:40;;;;;;;5.60;1.17;;;16.00;99.90;;;;;;5134142;27;20769;-86
2021/06/15 05:00:06;;;;;;;9.03;2.03;;;15.90;99.90;;;;;;5134436;27;21108;-86
2021/06/15 05:02:34;;;;;;;11.50;2.03;;;15.80;99.90;;;;;;5133090;27;20879;-86
2021/06/15 05:05:00;;;;;;;5.40;1.47;;;15.80;99.90;;;;;;5134198;27;20457;-85
2021/06/15 05:07:26;;;;;;;4.60;1.53;;;15.80;99.90;;;;;;5134436;27;20401;-87
2021/06/15 05:09:58;;;;;;;4.17;1.80;;;15.70;99.90;;;;;;5134320;27;20193;-86
2021/06/15 05:12:25;;;;;;;6.00;1.57;;;15.70;99.90;;;;;;5133744;27;21010;-87
2021/06/15 05:14:51;;;;;;;10.47;1.10;;;15.60;99.90;;;;;;5134225;27;20425;-86
2021/06/15 05:17:21;;;;;;;5.63;1.47;;;15.60;99.90;;;;;;5134274;27;20504;-87
2021/06/15 05:19:47;;;;;;;7.27;1.43;;;15.60;99.90;;;;;;5134142;27;20412;-87
2021/06/15 05:22:30;;;;;;;8.33;1.30;;;15.70;99.90;;;;;;5134062;27;20405;-87
2021/06/15 05:25:00;;;;;;;5.83;1.57;;;15.50;99.90;;;;;;5133992;27;20491;-86
2021/06/15 05:27:33;;;;;;;5.93;1.30;;;15.50;99.90;;;;;;5133799;27;20412;-89
2021/06/15 05:30:00;;;;;;;10.17;2.00;;;15.60;99.90;;;;;;5133231;27;20408;-89
2021/06/15 05:32:28;;;;;;;6.83;1.50;;;15.70;99.90;;;;;;5132100;27;20412;-88
2021/06/15 05:34:53;;;;;;;7.57;2.27;;;15.70;99.90;;;;;;5132776;27;20436;-87
2021/06/15 05:37:19;;;;;;;7.67;1.97;;;15.90;99.90;;;;;;5132927;27;20452;-86
2021/06/15 05:39:45;;;;;;;7.27;1.63;;;15.90;99.90;;;;;;5133943;28;20406;-86
2021/06/15 05:42:13;;;;;;;3.13;0.87;;;15.90;99.90;;;;;;5132255;28;20535;-88
2021/06/15 05:44:41;;;;;;;6.50;1.27;;;15.90;99.90;;;;;;5132681;28;20468;-86
2021/06/15 05:47:07;;;;;;;8.80;1.33;;;16.00;99.90;;;;;;5133835;27;20477;-87
2021/06/15 05:49:33;;;;;;;6.93;1.47;;;16.00;99.90;;;;;;5132467;28;20418;-86
2021/06/15 05:52:03;;;;;;;6.63;1.37;;;16.00;99.90;;;;;;5133814;28;20428;-87
2021/06/15 05:54:29;;;;;;;5.77;1.40;;;16.10;99.90;;;;;;5133720;27;20928;-86
2021/06/15 05:56:54;;;;;;;7.90;1.97;;;16.30;99.90;;;;;;5133570;27;20401;-87
2021/06/15 05:59:20;;;;;;;10.43;1.53;;;16.40;99.90;;;;;;5133766;28;20414;-86
2021/06/15 06:01:46;;;;;;;5.20;1.27;;;16.40;99.90;;;;;;5133676;27;20172;-87
2021/06/15 06:04:13;;;;;;;5.97;1.03;;;16.50;99.90;;;;;;5133678;27;20623;-87
2021/06/15 06:09:23;;;;;;;5.40;1.40;;;16.60;99.90;;;;;;5133673;28;20831;-87
2021/06/15 06:11:49;;;;;;;4.63;0.70;;;16.70;93.50;;;;;;5133111;27;20550;-87
2021/06/15 06:14:14;;;;;;;4.63;1.50;;;16.90;99.90;;;;;;5133544;28;20196;-88
2021/06/15 06:16:43;;;;;;;7.73;1.20;;;17.10;99.90;;;;;;5133606;28;20629;-87
2021/06/15 06:19:11;;;;;;;8.33;1.07;;;17.00;29.50;;;;;;5133557;28;20214;-90
2021/06/15 06:21:37;;;;;;;2.43;1.30;;;17.00;47.60;;;;;;5132245;28;20425;-87
2021/06/15 06:24:06;;;;;;;4.13;1.27;;;17.20;57.80;;;;;;5133536;27;20530;-87
2021/06/15 06:26:32;;;;;;;5.50;0.70;;;17.20;51.90;;;;;;5141793;27;20436;-87
2021/06/15 06:28:58;;;;;;;5.40;0.80;;;17.20;40.00;;;;;;5142774;27;20404;-86
2021/06/15 06:31:24;;;;;;;4.07;0.67;;;17.10;18.10;;;;;;5154154;27;20416;-87
2021/06/15 06:33:50;;;;;;;6.13;0.70;;;17.10;12.60;;;;;;5154173;27;20555;-87
2021/06/15 06:36:18;;;;;;;5.73;1.10;;;17.10;10.90;;;;;;5153307;27;20845;-88
2021/06/15 06:38:52;;;;;;;2.67;0.60;;;17.10;12.80;;;;;;5137270;28;20941;-90
2021/06/15 06:41:18;;;;;;;6.40;1.00;;;18.00;1.00;;;;;;5132069;28;20409;-87
2021/06/15 06:43:44;;;;;;;4.67;1.03;;;18.80;1.00;;;;;;5133864;27;20481;-86
2021/06/15 06:46:10;;;;;;;6.03;1.33;;;19.20;1.00;;;;;;5135599;27;20421;-86
2021/06/15 06:48:36;;;;;;;7.77;1.00;;;19.20;1.00;;;;;;5144359;27;20179;-88
2021/06/15 06:51:02;;;;;;;3.57;0.80;;;18.90;1.00;;;;;;5147381;27;20181;-87
2021/06/15 06:53:27;;;;;;;7.63;1.73;;;19.10;1.00;;;;;;5153314;27;20727;-87
2021/06/15 06:55:53;;;;;;;2.93;0.70;;;19.10;1.00;;;;;;5157623;27;20427;-86
2021/06/15 06:58:19;;;;;;;4.30;1.17;;;18.70;1.00;;;;;;5157205;27;20168;-87
2021/06/15 07:00:44;;;;;;;4.07;1.43;;;18.50;1.00;;;;;;5157252;27;20210;-88
2021/06/15 07:03:10;;;;;;;3.00;0.70;;;19.50;1.00;;;;;;5138728;27;20542;-88
2021/06/15 07:05:35;;;;;;;5.67;0.70;;;21.70;99.90;;;;;;5142610;27;20219;-87
2021/06/15 07:08:01;;;;;;;3.37;0.87;;;22.50;99.90;;;;;;5146963;27;20171;-86
2021/06/15 07:10:27;;;;;;;3.83;0.70;;;21.50;99.90;;;;;;5146406;27;20173;-88
2021/06/15 07:12:53;;;;;;;3.20;0.80;;;22.50;89.80;;;;;;5144688;27;20453;-88
2021/06/15 07:15:19;;;;;;;4.50;0.93;;;21.70;99.90;;;;;;5145375;27;20184;-87
2021/06/15 07:17:44;;;;;;;7.93;0.70;;;20.80;74.00;;;;;;5146733;27;20178;-87
2021/06/15 07:20:11;;;;;;;3.30;0.73;;;20.20;99.90;;;;;;5146455;27;20503;-88
2021/06/15 07:22:37;;;;;;;3.10;0.60;;;20.00;99.90;;;;;;5144786;27;20182;-89
2021/06/15 07:25:04;;;;;;;4.67;1.07;;;19.70;99.90;;;;;;5143227;27;20604;-88
2021/06/15 07:27:30;;;;;;;3.73;1.13;;;19.70;99.90;;;;;;5144127;27;20841;-88
2021/06/15 07:29:56;;;;;;;6.17;0.80;;;20.90;1.80;;;;;;5143147;27;20514;-87
2021/06/15 07:32:21;;;;;;;5.67;0.73;;;21.30;5.70;;;;;;5145087;27;20173;-86
2021/06/15 07:34:47;;;;;;;3.80;1.00;;;20.70;1.00;;;;;;5144688;27;20177;-88
2021/06/15 07:37:14;;;;;;;2.90;0.50;;;20.80;43.50;;;;;;5139776;27;20178;-89
2021/06/15 07:39:39;;;;;;;4.83;0.97;;;22.10;1.00;;;;;;5136232;27;20169;-90
2021/06/15 07:42:06;;;;;;;5.07;0.77;;;21.80;99.90;;;;;;5144882;27;20916;-90
2021/06/15 07:44:32;;;;;;;5.83;0.90;;;22.00;99.90;;;;;;5147528;27;20285;-87
2021/06/15 07:46:57;;;;;;;2.97;0.43;;;23.70;1.00;;;;;;5146829;27;20435;-85
2021/06/15 07:49:23;;;;;;;2.30;0.60;;;24.80;1.00;;;;;;5145532;27;20250;-83
2021/06/15 07:51:49;;;;;;;3.63;0.47;;;23.60;1.00;;;;;;5142911;27;20174;-84
2021/06/15 07:54:15;;;;;;;1.50;0.30;;;23.90;1.00;;;;;;5142717;27;20203;-88
2021/06/15 07:56:41;;;;;;;3.20;0.67;;;23.30;1.00;;;;;;5144822;27;20440;-87
2021/06/15 07:59:07;;;;;;;4.13;0.60;;;22.40;99.90;;;;;;5144530;27;20257;-84
2021/06/15 08:01:32;;;;;;;7.60;1.27;;;22.40;1.00;;;;;;5142950;27;21040;-83
2021/06/15 08:03:58;;;;;;;5.47;0.60;;;21.90;99.90;;;;;;5146302;27;20563;-84
2021/06/15 08:06:24;;;;;;;2.77;0.70;;;22.40;1.00;;;;;;5135349;27;20246;-85
2021/06/15 08:08:50;;;;;;;2.77;0.57;;;22.90;1.00;;;;;;5128590;27;20184;-89
2021/06/15 08:11:16;;;;;;;5.80;1.37;;;23.10;1.00;;;;;;5114531;28;20219;-90
2021/06/15 08:13:42;;;;;;;3.93;1.00;;;23.30;1.00;;;;;;5113488;28;20182;-87
2021/06/15 08:16:08;;;;;;;5.83;0.90;;;23.30;99.10;;;;;;5114877;28;20413;-90
2021/06/15 08:18:33;;;;;;;7.53;1.07;;;22.40;99.90;;;;;;5114802;28;20422;-89
2021/06/15 08:20:59;;;;;;;2.30;0.67;;;21.90;99.90;;;;;;5113321;28;20633;-87
2021/06/15 08:23:26;;;;;;;4.97;0.60;;;21.90;1.00;;;;;;5114722;28;20213;-86
2021/06/15 08:25:52;;;;;;;1.57;0.30;;;22.10;99.90;;;;;;5114480;28;20418;-86
2021/06/15 08:28:18;;;;;;;3.93;0.90;;;22.30;99.90;;;;;;5114178;28;20439;-89
2021/06/15 08:30:44;;;;;;;3.73;0.40;;;22.00;1.00;;;;;;5114590;28;20409;-89
2021/06/15 08:33:10;;;;;;;2.67;0.60;;;21.90;1.00;;;;;;5114476;28;20496;-89
2021/06/15 08:35:36;;;;;;;3.53;0.50;;;22.10;1.00;;;;;;5129958;27;20530;-87
2021/06/15 08:38:02;;;;;;;5.00;1.07;;;22.70;99.90;;;;;;5134950;27;20416;-86
2021/06/15 08:40:28;;;;;;;4.50;0.40;;;22.50;99.90;;;;;;5134731;27;20179;-89
2021/06/15 08:42:54;;;;;;;5.47;0.97;;;22.90;99.90;;;;;;5134471;27;20810;-88
2021/06/15 08:45:20;;;;;;;2.83;0.60;;;24.40;1.00;;;;;;5134730;27;20468;-86
2021/06/15 08:47:48;;;;;;;2.93;0.60;;;24.30;1.00;;;;;;5118970;27;20254;-89
2021/06/15 08:50:17;;;;;;;4.90;0.63;;;23.40;1.00;;;;;;5112894;28;20176;-85
2021/06/15 08:52:45;;;;;;;2.97;0.70;;;22.60;99.90;;;;;;5112922;28;20413;-89
2021/06/15 08:55:12;;;;;;;4.77;1.13;;;22.80;99.90;;;;;;5114114;28;20408;-85
2021/06/15 08:57:40;;;;;;;5.53;1.13;;;23.10;1.00;;;;;;5113512;28;20437;-85
2021/06/15 09:00:11;;;;;;;2.57;0.50;;;22.50;1.00;;;;;;5113902;28;20405;-85
2021/06/15 09:02:45;;;;;;;4.57;1.00;;;21.90;99.90;;;;;;5112849;28;20776;-86
2021/06/15 09:05:17;;;;;;;2.63;0.60;;;21.40;1.00;;;;;;5112705;28;20472;-84
2021/06/15 09:08:12;;;;;;;2.00;0.20;;;22.50;1.00;;;;;;5111630;28;20414;-85
2021/06/15 09:10:40;;;;;;;3.80;0.60;;;24.70;99.90;;;;;;5113808;28;20413;-84
2021/06/15 09:13:27;;;;;;;3.80;0.60;;;25.40;99.90;;;;;;5111751;28;20995;-85
2021/06/15 09:15:52;;;;;;;3.63;0.70;;;25.80;99.90;;;;;;5099114;28;20960;-85
2021/06/15 09:18:29;;;;;;;2.30;0.40;;;26.40;99.90;;;;;;5113494;28;20413;-89
2021/06/15 09:20:59;;;;;;;3.13;0.60;;;26.30;99.90;;;;;;5113555;28;20235;-86
2021/06/15 09:23:37;;;;;;;3.53;0.60;;;26.70;99.90;;;;;;5117224;27;20432;-87
2021/06/15 09:26:05;;;;;;;2.73;0.30;;;26.80;99.90;;;;;;5141797;27;20419;-89
2021/06/15 09:28:30;;;;;;;4.40;1.03;;;24.80;99.90;;;;;;5133421;27;20420;-84
2021/06/15 09:31:08;;;;;;;5.37;1.00;;;23.40;99.90;;;;;;5131316;27;20783;-84
2021/06/15 09:33:48;;;;;;;3.27;0.93;;;23.80;99.90;;;;;;5132911;27;20239;-84
2021/06/15 09:36:13;;;;;;;3.40;1.03;;;25.10;99.90;;;;;;5134210;27;20404;-85
2021/06/15 09:38:58;;;;;;;2.83;0.80;;;26.10;99.90;;;;;;5134139;27;20397;-85
2021/06/15 09:41:33;;;;;;;3.13;1.00;;;26.50;99.90;;;;;;5133487;27;20159;-85
2021/06/15 09:44:20;;;;;;;4.33;1.30;;;26.10;99.90;;;;;;5133835;27;20451;-85
2021/06/15 09:46:54;;;;;;;3.23;0.70;;;25.50;99.90;;;;;;5134245;27;20396;-85
2021/06/15 09:49:38;;;;;;;4.83;0.63;;;25.10;99.90;;;;;;5134008;27;20424;-86
2021/06/15 09:52:23;;;;;;;4.10;0.70;;;25.80;99.90;;;;;;5134186;27;20409;-85
2021/06/15 09:54:59;;;;;;;3.30;0.70;;;26.60;99.90;;;;;;5127230;27;20426;-85
2021/06/15 09:57:27;;;;;;;3.03;0.70;;;26.80;98.40;;;;;;5113123;28;20754;-84
2021/06/15 10:00:06;;;;;;;3.57;0.50;;;26.40;99.90;;;;;;5130865;28;20440;-84
2021/06/15 10:02:32;;;;;;;3.67;0.53;;;27.10;80.30;;;;;;5127793;28;20413;-84
2021/06/15 10:05:03;;;;;;;3.20;0.90;;;27.40;32.40;;;;;;5130783;28;20471;-85
2021/06/15 10:07:31;;;;;;;2.80;0.60;;;27.30;25.30;;;;;;5133839;27;20411;-84
2021/06/15 10:09:58;;;;;;;5.83;1.10;;;27.50;26.60;;;;;;5133924;27;20499;-83
2021/06/15 10:12:25;;;;;;;5.70;0.80;;;27.30;24.10;;;;;;5123059;27;20546;-83
2021/06/15 10:14:53;;;;;;;2.40;0.47;;;26.70;24.10;;;;;;5117008;27;20423;-84
2021/06/15 10:17:19;;;;;;;6.43;0.90;;;26.80;41.50;;;;;;5143464;27;20415;-82
2021/06/15 10:19:45;;;;;;;3.40;0.73;;;26.10;33.90;;;;;;5143128;27;20444;-83
2021/06/15 10:22:11;;;;;;;6.93;1.20;;;25.10;45.40;;;;;;5150069;27;20428;-83
2021/06/15 10:24:40;;;;;;;3.73;0.70;;;25.10;99.90;;;;;;5157217;27;20623;-83
2021/06/15 10:27:10;;;;;;;4.50;1.10;;;24.40;99.90;;;;;;5135601;27;20987;-83
2021/06/15 10:29:37;;;;;;;4.87;0.53;;;23.70;99.90;;;;;;5136565;27;20417;-82
2021/06/15 10:32:29;;;;;;;3.63;0.80;;;23.20;99.90;;;;;;5136406;27;20412;-83
2021/06/15 10:35:01;;;;;;;4.70;0.57;;;23.50;99.90;;;;;;5136351;27;20400;-85
2021/06/15 10:37:39;;;;;;;5.37;1.03;;;25.00;99.90;;;;;;5135158;27;20469;-83
2021/06/15 10:40:25;;;;;;;3.83;1.00;;;25.70;99.90;;;;;;5136300;27;20408;-83
2021/06/15 10:43:16;;;;;;;4.90;0.73;;;25.80;99.90;;;;;;5143966;27;20415;-84
2021/06/15 10:45:44;;;;;;;7.80;1.70;;;26.60;99.90;;;;;;5155594;27;20482;-84
2021/06/15 10:48:10;;;;;;;4.97;1.00;;;27.00;56.70;;;;;;5143306;27;20971;-83
2021/06/15 10:50:44;;;;;;;6.00;0.77;;;27.10;34.80;;;;;;5137101;27;20412;-86
2021/06/15 10:53:11;;;;;;;4.10;0.87;;;27.30;28.50;;;;;;5137041;27;20749;-84
2021/06/15 10:56:00;;;;;;;3.90;1.23;;;27.70;39.90;;;;;;5134616;27;20435;-84
2021/06/15 10:58:31;;;;;;;5.77;0.77;;;27.00;27.50;;;;;;5136558;27;20949;-83
2021/06/15 11:01:15;;;;;;;5.70;0.57;;;26.60;56.40;;;;;;5130306;27;20429;-83
2021/06/15 11:03:45;;;;;;;2.13;0.70;;;27.00;35.50;;;;;;5117139;27;20417;-92
2021/06/15 11:06:11;;;;;;;4.70;0.70;;;26.10;32.90;;;;;;5127614;27;20519;-83
2021/06/15 11:08:37;;;;;;;3.93;0.73;;;26.10;81.90;;;;;;5136770;27;20458;-83
2021/06/15 11:11:19;;;;;;;4.37;0.83;;;25.00;49.20;;;;;;5136059;27;20424;-83
2021/06/15 11:13:48;;;;;;;6.57;1.67;;;24.30;65.50;;;;;;5136643;27;20488;-83
2021/06/15 11:16:32;;;;;;;3.50;1.00;;;24.80;92.60;;;;;;5136613;27;20469;-83
2021/06/15 11:19:11;;;;;;;4.30;1.07;;;26.20;99.90;;;;;;5136626;27;20743;-83
2021/06/15 11:21:58;;;;;;;2.60;0.73;;;27.10;86.50;;;;;;5136416;27;20446;-83
2021/06/15 11:24:25;;;;;;;3.77;0.87;;;27.30;33.90;;;;;;5136405;27;20467;-84
2021/06/15 11:26:53;;;;;;;2.23;0.43;;;26.90;22.40;;;;;;5136159;27;20400;-83
2021/06/15 11:29:39;;;;;;;2.27;0.67;;;26.60;23.50;;;;;;5136302;27;20452;-84
2021/06/15 11:32:24;;;;;;;2.73;0.77;;;27.10;18.30;;;;;;5135426;27;20412;-88
2021/06/15 11:34:53;;;;;;;3.87;0.60;;;27.40;16.00;;;;;;5136334;27;20550;-83
2021/06/15 11:37:21;;;;;;;3.30;0.50;;;27.90;23.30;;;;;;5136205;27;20405;-84
2021/06/15 11:39:47;;;;;;;2.67;0.70;;;27.90;1.00;;;;;;5136092;27;20504;-83
2021/06/15 11:42:33;;;;;;;2.43;0.77;;;27.60;3.80;;;;;;5135759;27;20400;-88
2021/06/15 11:45:12;;;;;;;4.50;0.80;;;27.20;1.00;;;;;;5135522;27;20472;-83
2021/06/15 11:47:39;;;;;;;3.30;0.70;;;27.10;1.20;;;;;;5136121;27;20408;-84
2021/06/15 11:50:38;;;;;;;3.90;0.70;;;26.70;11.00;;;;;;5134689;27;20500;-86
2021/06/15 11:53:13;;;;;;;2.00;1.07;;;27.30;8.70;;;;;;5134638;27;20416;-87
2021/06/15 11:55:42;;;;;;;3.60;0.60;;;27.50;1.00;;;;;;5135471;27;20993;-83
2021/06/15 11:58:11;;;;;;;4.20;1.20;;;28.20;2.20;;;;;;5134459;27;20413;-83
2021/06/15 12:00:43;;;;;;;3.90;0.97;;;28.30;1.00;;;;;;5135809;27;20409;-87
2021/06/15 12:03:13;;;;;;;3.73;0.97;;;28.30;1.00;;;;;;5135703;27;20774;-83
2021/06/15 12:05:41;;;;;;;2.80;0.50;;;27.70;1.00;;;;;;5135654;27;20460;-84
2021/06/15 12:08:07;;;;;;;3.20;0.60;;;27.30;1.80;;;;;;5135666;27;20396;-88
2021/06/15 12:10:33;;;;;;;2.80;0.63;;;26.50;2.10;;;;;;5134028;27;20428;-83
2021/06/15 12:12:59;;;;;;;4.07;1.13;;;27.10;15.60;;;;;;5135332;27;20456;-83
2021/06/15 12:15:49;;;;;;;3.00;0.80;;;28.00;2.50;;;;;;5134252;27;20837;-83
2021/06/15 12:18:21;;;;;;;1.90;0.70;;;27.90;2.20;;;;;;5135500;27;20170;-83
2021/06/15 12:20:48;;;;;;;2.60;0.53;;;26.70;1.00;;;;;;5134048;27;20405;-86
2021/06/15 12:23:24;;;;;;;2.80;1.07;;;27.00;15.50;;;;;;5135423;27;20440;-83
2021/06/15 12:25:51;;;;;;;4.30;1.43;;;28.10;22.10;;;;;;5134840;27;20503;-83
2021/06/15 12:28:23;;;;;;;2.63;0.60;;;28.00;6.90;;;;;;5135154;27;20465;-83
2021/06/15 12:31:16;;;;;;;1.63;0.37;;;26.90;6.70;;;;;;5135224;27;20416;-84
2021/06/15 12:33:44;;;;;;;4.00;1.03;;;27.00;11.70;;;;;;5135162;27;20937;-84
2021/06/15 12:36:18;;;;;;;3.30;0.70;;;26.70;13.20;;;;;;5135112;27;20400;-85
2021/06/15 12:38:45;;;;;;;4.40;1.20;;;27.10;2.50;;;;;;5135044;27;20409;-83
2021/06/15 12:41:38;;;;;;;6.60;0.80;;;26.90;6.80;;;;;;5134231;27;20420;-82
2021/06/15 12:44:05;;;;;;;4.70;0.90;;;27.30;1.00;;;;;;5130195;27;20857;-83
2021/06/15 12:46:34;;;;;;;3.13;0.60;;;27.70;1.00;;;;;;5134689;27;20405;-83
2021/06/15 12:49:18;;;;;;;4.30;0.87;;;28.20;1.00;;;;;;5134744;27;20769;-85
2021/06/15 12:51:47;;;;;;;3.67;1.00;;;27.20;1.00;;;;;;5134665;27;20455;-83
2021/06/15 12:54:29;;;;;;;4.50;1.10;;;26.70;1.00;;;;;;5133240;27;20874;-83
2021/06/15 12:57:02;;;;;;;3.20;0.80;;;27.90;1.00;;;;;;5134180;27;20739;-83
2021/06/15 12:59:28;;;;;;;3.87;0.80;;;28.20;1.00;;;;;;5134468;27;20409;-83
2021/06/15 13:01:54;;;;;;;3.90;0.93;;;27.90;1.00;;;;;;5133249;27;20423;-83
2021/06/15 13:04:23;;;;;;;3.40;1.07;;;28.40;1.00;;;;;;5134340;27;20897;-83